sensor_id;sensor_type;location;lat;lon;timestamp;temperature;humidity
10042;DHT22;5061;49.068;12.058;2023-04-24T00:02:30;11.40;99.90
10042;DHT22;5061;49.068;12.058;2023-04-24T00:05:52;11.40;99.90
10042;DHT22;5061;49.068;12.058;2023-04-24T00:09:12;11.40;99.90
10042;DHT22;5061;49.068;12.058;2023-04-24T00:12:33;11.40;99.90
10042;DHT22;5061;49.068;12.058;2023-04-24T00:15:54;11.40;99.90
10042;DHT22;5061;49.068;12.058;2023-04-24T00:19:15;11.40;99.90
10042;DHT22;5061;49.068;12.058;2023-04-24T00:22:36;11.40;99.90
10042;DHT22;5061;49.068;12.058;2023-04-24T00:25:57;11.40;99.90
10042;DHT22;5061;49.068;12.058;2023-04-24T00:29:18;11.40;99.90
10042;DHT22;5061;49.068;12.058;2023-04-24T00:32:39;11.40;99.90
10042;DHT22;5061;49.068;12.058;2023-04-24T00:35:59;11.40;99.90
10042;DHT22;5061;49.068;12.058;2023-04-24T00:39:20;11.40;99.90
10042;DHT22;5061;49.068;12.058;2023-04-24T00:42:41;11.40;99.90
10042;DHT22;5061;49.068;12.058;2023-04-24T00:46:03;11.30;99.90
10042;DHT22;5061;49.068;12.058;2023-04-24T00:49:24;11.30;99.90
10042;DHT22;5061;49.068;12.058;2023-04-24T00:52:45;11.30;99.90
10042;DHT22;5061;49.068;12.058;2023-04-24T00:56:05;11.30;99.90
10042;DHT22;5061;49.068;12.058;2023-04-24T00:59:26;11.30;99.90
10042;DHT22;5061;49.068;12.058;2023-04-24T01:02:47;11.30;99.90
10042;DHT22;5061;49.068;12.058;2023-04-24T01:06:09;11.30;99.90
10042;DHT22;5061;49.068;12.058;2023-04-24T01:09:30;11.30;99.90
10042;DHT22;5061;49.068;12.058;2023-04-24T01:12:51;11.30;99.90
10042;DHT22;5061;49.068;12.058;2023-04-24T01:16:12;11.30;99.90
10042;DHT22;5061;49.068;12.058;2023-04-24T01:19:33;11.30;99.90
10042;DHT22;5061;49.068;12.058;2023-04-24T01:22:54;11.30;99.90
10042;DHT22;5061;49.068;12.058;2023-04-24T01:26:17;11.30;99.90
10042;DHT22;5061;49.068;12.058;2023-04-24T01:29:38;11.30;99.90
10042;DHT22;5061;49.068;12.058;2023-04-24T01:32:59;11.30;99.90
10042;DHT22;5061;49.068;12.058;2023-04-24T01:36:21;11.20;99.90
10042;DHT22;5061;49.068;12.058;2023-04-24T01:39:43;11.20;99.90
10042;DHT22;5061;49.068;12.058;2023-04-24T01:43:03;11.30;99.90
10042;DHT22;5061;49.068;12.058;2023-04-24T01:46:24;11.30;99.90
10042;DHT22;5061;49.068;12.058;2023-04-24T01:49:45;11.30;99.90
10042;DHT22;5061;49.068;12.058;2023-04-24T01:53:08;11.30;99.90
10042;DHT22;5061;49.068;12.058;2023-04-24T01:56:29;11.20;99.90
10042;DHT22;5061;49.068;12.058;2023-04-24T01:59:53;11.30;99.90
10042;DHT22;5061;49.068;12.058;2023-04-24T02:03:13;11.20;99.90
10042;DHT22;5061;49.068;12.058;2023-04-24T02:06:34;11.20;99.90
10042;DHT22;5061;49.068;12.058;2023-04-24T02:09:55;11.20;99.90
10042;DHT22;5061;49.068;12.058;2023-04-24T02:13:15;11.20;99.90
10042;DHT22;5061;49.068;12.058;2023-04-24T02:16:36;11.20;99.90
10042;DHT22;5061;49.068;12.058;2023-04-24T02:19:57;11.20;99.90
10042;DHT22;5061;49.068;12.058;2023-04-24T02:23:17;11.20;99.90
10042;DHT22;5061;49.068;12.058;2023-04-24T02:26:38;11.20;99.90
10042;DHT22;5061;49.068;12.058;2023-04-24T02:29:59;11.20;99.90
10042;DHT22;5061;49.068;12.058;2023-04-24T02:33:19;11.20;99.90
10042;DHT22;5061;49.068;12.058;2023-04-24T02:36:40;11.20;99.90
10042;DHT22;5061;49.068;12.058;2023-04-24T02:40:01;11.20;99.90
10042;DHT22;5061;49.068;12.058;2023-04-24T02:43:21;11.20;99.90
10042;DHT22;5061;49.068;12.058;2023-04-24T02:46:42;11.10;99.90
10042;DHT22;5061;49.068;12.058;2023-04-24T02:50:03;11.10;99.90
10042;DHT22;5061;49.068;12.058;2023-04-24T02:53:24;11.10;99.90
10042;DHT22;5061;49.068;12.058;2023-04-24T02:56:45;11.00;99.90
10042;DHT22;5061;49.068;12.058;2023-04-24T03:00:06;11.00;99.90
10042;DHT22;5061;49.068;12.058;2023-04-24T03:03:27;11.00;99.90
10042;DHT22;5061;49.068;12.058;2023-04-24T03:06:48;10.90;99.90
10042;DHT22;5061;49.068;12.058;2023-04-24T03:10:09;10.90;99.90
10042;DHT22;5061;49.068;12.058;2023-04-24T03:13:29;10.90;99.90
10042;DHT22;5061;49.068;12.058;2023-04-24T03:16:50;10.90;99.90
10042;DHT22;5061;49.068;12.058;2023-04-24T03:20:10;10.90;99.90
10042;DHT22;5061;49.068;12.058;2023-04-24T03:23:31;10.80;99.90
10042;DHT22;5061;49.068;12.058;2023-04-24T03:26:52;10.80;99.90
10042;DHT22;5061;49.068;12.058;2023-04-24T03:30:13;10.80;99.90
10042;DHT22;5061;49.068;12.058;2023-04-24T03:33:33;10.80;99.90
10042;DHT22;5061;49.068;12.058;2023-04-24T03:36:54;10.80;99.90
10042;DHT22;5061;49.068;12.058;2023-04-24T03:40:15;10.70;99.90
10042;DHT22;5061;49.068;12.058;2023-04-24T03:43:35;10.70;99.90
10042;DHT22;5061;49.068;12.058;2023-04-24T03:46:58;10.70;99.90
10042;DHT22;5061;49.068;12.058;2023-04-24T03:50:18;10.70;99.90
10042;DHT22;5061;49.068;12.058;2023-04-24T03:53:39;10.70;99.90
10042;DHT22;5061;49.068;12.058;2023-04-24T03:57:00;10.70;99.90
10042;DHT22;5061;49.068;12.058;2023-04-24T04:00:21;10.70;99.90
10042;DHT22;5061;49.068;12.058;2023-04-24T04:03:42;10.70;99.90
10042;DHT22;5061;49.068;12.058;2023-04-24T04:07:03;10.60;99.90
10042;DHT22;5061;49.068;12.058;2023-04-24T04:10:24;10.60;99.90
10042;DHT22;5061;49.068;12.058;2023-04-24T04:13:44;10.60;99.90
10042;DHT22;5061;49.068;12.058;2023-04-24T04:17:05;10.60;99.90
10042;DHT22;5061;49.068;12.058;2023-04-24T04:23:56;10.60;99.90
10042;DHT22;5061;49.068;12.058;2023-04-24T04:27:17;10.50;99.90
10042;DHT22;5061;49.068;12.058;2023-04-24T04:30:40;10.50;99.90
10042;DHT22;5061;49.068;12.058;2023-04-24T04:34:03;10.50;99.90
10042;DHT22;5061;49.068;12.058;2023-04-24T04:37:24;10.50;99.90
10042;DHT22;5061;49.068;12.058;2023-04-24T04:40:46;10.50;99.90
10042;DHT22;5061;49.068;12.058;2023-04-24T04:44:08;10.50;99.90
10042;DHT22;5061;49.068;12.058;2023-04-24T04:47:29;10.50;99.90
10042;DHT22;5061;49.068;12.058;2023-04-24T04:50:52;10.50;99.90
10042;DHT22;5061;49.068;12.058;2023-04-24T04:54:13;10.50;99.90
10042;DHT22;5061;49.068;12.058;2023-04-24T04:57:34;10.50;99.90
10042;DHT22;5061;49.068;12.058;2023-04-24T05:00:56;10.40;99.90
10042;DHT22;5061;49.068;12.058;2023-04-24T05:04:17;10.40;99.90
10042;DHT22;5061;49.068;12.058;2023-04-24T05:07:39;10.40;99.90
10042;DHT22;5061;49.068;12.058;2023-04-24T05:11:00;10.50;99.90
10042;DHT22;5061;49.068;12.058;2023-04-24T05:14:22;10.40;99.90
10042;DHT22;5061;49.068;12.058;2023-04-24T05:17:43;10.40;99.90
10042;DHT22;5061;49.068;12.058;2023-04-24T05:21:05;10.40;99.90
10042;DHT22;5061;49.068;12.058;2023-04-24T05:24:30;10.40;99.90
10042;DHT22;5061;49.068;12.058;2023-04-24T05:27:51;10.40;99.90
10042;DHT22;5061;49.068;12.058;2023-04-24T05:31:14;10.40;99.90
10042;DHT22;5061;49.068;12.058;2023-04-24T05:34:38;10.40;99.90
10042;DHT22;5061;49.068;12.058;2023-04-24T05:37:58;10.40;99.90
10042;DHT22;5061;49.068;12.058;2023-04-24T05:41:19;10.30;99.90
10042;DHT22;5061;49.068;12.058;2023-04-24T05:44:39;10.40;99.90
10042;DHT22;5061;49.068;12.058;2023-04-24T05:48:00;10.40;99.90
10042;DHT22;5061;49.068;12.058;2023-04-24T05:51:21;10.40;99.90
10042;DHT22;5061;49.068;12.058;2023-04-24T05:54:41;10.40;99.90
10042;DHT22;5061;49.068;12.058;2023-04-24T05:58:02;10.40;99.90
10042;DHT22;5061;49.068;12.058;2023-04-24T06:01:23;10.40;99.90
10042;DHT22;5061;49.068;12.058;2023-04-24T06:04:44;10.40;99.90
10042;DHT22;5061;49.068;12.058;2023-04-24T06:08:05;10.40;99.90
10042;DHT22;5061;49.068;12.058;2023-04-24T06:11:25;10.50;99.90
10042;DHT22;5061;49.068;12.058;2023-04-24T06:14:47;10.50;99.90
10042;DHT22;5061;49.068;12.058;2023-04-24T06:18:08;10.50;99.90
10042;DHT22;5061;49.068;12.058;2023-04-24T06:21:30;10.50;99.90
10042;DHT22;5061;49.068;12.058;2023-04-24T06:24:51;10.60;99.90
10042;DHT22;5061;49.068;12.058;2023-04-24T06:28:12;10.50;99.90
10042;DHT22;5061;49.068;12.058;2023-04-24T06:31:33;10.60;99.90
10042;DHT22;5061;49.068;12.058;2023-04-24T06:34:57;10.60;99.90
10042;DHT22;5061;49.068;12.058;2023-04-24T06:38:18;10.60;99.90
10042;DHT22;5061;49.068;12.058;2023-04-24T06:41:38;10.60;99.90
10042;DHT22;5061;49.068;12.058;2023-04-24T06:45:00;10.70;99.90
10042;DHT22;5061;49.068;12.058;2023-04-24T06:48:21;10.70;99.90
10042;DHT22;5061;49.068;12.058;2023-04-24T06:51:42;10.70;99.90
10042;DHT22;5061;49.068;12.058;2023-04-24T06:55:03;10.70;99.90
10042;DHT22;5061;49.068;12.058;2023-04-24T06:58:25;10.80;99.90
10042;DHT22;5061;49.068;12.058;2023-04-24T07:01:45;10.80;99.90
10042;DHT22;5061;49.068;12.058;2023-04-24T07:05:06;10.90;99.90
10042;DHT22;5061;49.068;12.058;2023-04-24T07:08:29;10.90;99.90
10042;DHT22;5061;49.068;12.058;2023-04-24T07:11:51;11.00;99.90
10042;DHT22;5061;49.068;12.058;2023-04-24T07:15:12;11.10;99.90
10042;DHT22;5061;49.068;12.058;2023-04-24T07:18:33;11.10;99.90
10042;DHT22;5061;49.068;12.058;2023-04-24T07:21:53;11.10;99.90
10042;DHT22;5061;49.068;12.058;2023-04-24T07:25:15;11.20;99.90
10042;DHT22;5061;49.068;12.058;2023-04-24T07:28:36;11.20;99.90
10042;DHT22;5061;49.068;12.058;2023-04-24T07:31:56;11.30;99.90
10042;DHT22;5061;49.068;12.058;2023-04-24T07:35:17;11.30;99.90
10042;DHT22;5061;49.068;12.058;2023-04-24T07:38:38;11.40;99.90
10042;DHT22;5061;49.068;12.058;2023-04-24T07:41:58;11.40;99.90
10042;DHT22;5061;49.068;12.058;2023-04-24T07:45:19;11.40;99.90
10042;DHT22;5061;49.068;12.058;2023-04-24T07:48:40;11.50;99.90
10042;DHT22;5061;49.068;12.058;2023-04-24T07:52:01;11.50;99.90
10042;DHT22;5061;49.068;12.058;2023-04-24T07:55:23;11.50;99.90
10042;DHT22;5061;49.068;12.058;2023-04-24T07:58:43;11.60;99.90
10042;DHT22;5061;49.068;12.058;2023-04-24T08:02:04;11.60;99.90
10042;DHT22;5061;49.068;12.058;2023-04-24T08:05:26;11.60;99.90
10042;DHT22;5061;49.068;12.058;2023-04-24T08:08:48;11.70;99.90
10042;DHT22;5061;49.068;12.058;2023-04-24T08:12:09;11.80;99.90
10042;DHT22;5061;49.068;12.058;2023-04-24T08:15:30;11.80;99.90
10042;DHT22;5061;49.068;12.058;2023-04-24T08:18:50;11.90;99.90
10042;DHT22;5061;49.068;12.058;2023-04-24T08:22:11;12.00;99.90
10042;DHT22;5061;49.068;12.058;2023-04-24T08:25:32;12.20;99.90
10042;DHT22;5061;49.068;12.058;2023-04-24T08:28:53;12.20;99.90
10042;DHT22;5061;49.068;12.058;2023-04-24T08:32:13;12.20;99.90
10042;DHT22;5061;49.068;12.058;2023-04-24T08:35:34;12.10;99.90
10042;DHT22;5061;49.068;12.058;2023-04-24T08:38:54;11.90;99.90
10042;DHT22;5061;49.068;12.058;2023-04-24T08:42:17;11.60;99.90
10042;DHT22;5061;49.068;12.058;2023-04-24T08:45:37;11.30;99.90
10042;DHT22;5061;49.068;12.058;2023-04-24T08:48:58;11.10;99.90
10042;DHT22;5061;49.068;12.058;2023-04-24T08:52:20;11.00;99.90
10042;DHT22;5061;49.068;12.058;2023-04-24T08:55:43;10.90;99.90
10042;DHT22;5061;49.068;12.058;2023-04-24T08:59:06;10.90;99.90
10042;DHT22;5061;49.068;12.058;2023-04-24T09:02:27;10.90;99.90
10042;DHT22;5061;49.068;12.058;2023-04-24T09:05:49;10.90;99.90
10042;DHT22;5061;49.068;12.058;2023-04-24T09:09:10;10.90;99.90
10042;DHT22;5061;49.068;12.058;2023-04-24T09:12:33;10.90;99.90
10042;DHT22;5061;49.068;12.058;2023-04-24T09:15:54;11.00;99.90
10042;DHT22;5061;49.068;12.058;2023-04-24T09:19:17;11.00;99.90
10042;DHT22;5061;49.068;12.058;2023-04-24T09:22:38;11.10;99.90
10042;DHT22;5061;49.068;12.058;2023-04-24T09:26:00;11.20;99.90
10042;DHT22;5061;49.068;12.058;2023-04-24T09:29:21;11.30;99.90
10042;DHT22;5061;49.068;12.058;2023-04-24T09:32:42;11.40;99.90
10042;DHT22;5061;49.068;12.058;2023-04-24T09:36:03;11.40;99.90
10042;DHT22;5061;49.068;12.058;2023-04-24T09:39:23;11.40;99.90
10042;DHT22;5061;49.068;12.058;2023-04-24T09:46:07;11.60;99.90
10042;DHT22;5061;49.068;12.058;2023-04-24T09:49:47;11.60;99.90
10042;DHT22;5061;49.068;12.058;2023-04-24T09:53:07;11.80;99.90
10042;DHT22;5061;49.068;12.058;2023-04-24T09:56:32;11.80;99.90
10042;DHT22;5061;49.068;12.058;2023-04-24T09:59:53;11.90;99.90
10042;DHT22;5061;49.068;12.058;2023-04-24T10:03:14;12.00;99.90
10042;DHT22;5061;49.068;12.058;2023-04-24T10:06:35;12.00;99.90
10042;DHT22;5061;49.068;12.058;2023-04-24T10:09:56;12.10;99.90
10042;DHT22;5061;49.068;12.058;2023-04-24T10:13:17;11.90;99.90
10042;DHT22;5061;49.068;12.058;2023-04-24T10:16:39;12.00;99.90
10042;DHT22;5061;49.068;12.058;2023-04-24T10:20:01;11.90;99.90
10042;DHT22;5061;49.068;12.058;2023-04-24T10:23:22;11.90;99.90
10042;DHT22;5061;49.068;12.058;2023-04-24T10:26:45;11.90;99.90
10042;DHT22;5061;49.068;12.058;2023-04-24T10:30:06;11.90;99.90
10042;DHT22;5061;49.068;12.058;2023-04-24T10:33:29;11.80;99.90
10042;DHT22;5061;49.068;12.058;2023-04-24T10:36:51;11.80;99.90
10042;DHT22;5061;49.068;12.058;2023-04-24T10:40:17;11.70;99.90
10042;DHT22;5061;49.068;12.058;2023-04-24T10:43:39;11.70;99.90
10042;DHT22;5061;49.068;12.058;2023-04-24T10:47:01;11.70;99.90
10042;DHT22;5061;49.068;12.058;2023-04-24T10:50:22;11.70;99.90
10042;DHT22;5061;49.068;12.058;2023-04-24T10:53:42;11.70;99.90
10042;DHT22;5061;49.068;12.058;2023-04-24T11:00:43;11.90;99.90
10042;DHT22;5061;49.068;12.058;2023-04-24T11:04:07;12.00;99.90
10042;DHT22;5061;49.068;12.058;2023-04-24T11:07:27;12.10;99.90
10042;DHT22;5061;49.068;12.058;2023-04-24T11:11:15;12.10;99.90
10042;DHT22;5061;49.068;12.058;2023-04-24T11:18:15;12.30;99.90
10042;DHT22;5061;49.068;12.058;2023-04-24T11:25:11;12.40;99.90
10042;DHT22;5061;49.068;12.058;2023-04-24T11:28:34;12.40;99.90
10042;DHT22;5061;49.068;12.058;2023-04-24T11:31:54;12.40;99.90
10042;DHT22;5061;49.068;12.058;2023-04-24T11:35:19;12.40;99.90
10042;DHT22;5061;49.068;12.058;2023-04-24T11:38:41;12.20;99.90
10042;DHT22;5061;49.068;12.058;2023-04-24T11:42:03;11.90;99.90
10042;DHT22;5061;49.068;12.058;2023-04-24T11:45:26;11.70;99.90
10042;DHT22;5061;49.068;12.058;2023-04-24T11:48:49;11.60;99.90
10042;DHT22;5061;49.068;12.058;2023-04-24T11:52:10;11.50;99.90
10042;DHT22;5061;49.068;12.058;2023-04-24T11:55:31;11.60;99.90
10042;DHT22;5061;49.068;12.058;2023-04-24T11:58:52;11.60;99.90
10042;DHT22;5061;49.068;12.058;2023-04-24T12:02:25;11.80;99.90
10042;DHT22;5061;49.068;12.058;2023-04-24T12:05:46;12.10;99.90
10042;DHT22;5061;49.068;12.058;2023-04-24T12:09:06;12.40;99.90
10042;DHT22;5061;49.068;12.058;2023-04-24T12:12:28;12.60;99.90
10042;DHT22;5061;49.068;12.058;2023-04-24T12:19:23;12.90;99.90
10042;DHT22;5061;49.068;12.058;2023-04-24T12:22:50;12.90;99.90
10042;DHT22;5061;49.068;12.058;2023-04-24T12:26:11;12.90;99.90
10042;DHT22;5061;49.068;12.058;2023-04-24T12:29:32;12.90;99.90
10042;DHT22;5061;49.068;12.058;2023-04-24T12:32:52;13.10;99.90
10042;DHT22;5061;49.068;12.058;2023-04-24T12:36:15;13.10;99.90
10042;DHT22;5061;49.068;12.058;2023-04-24T12:39:36;13.20;99.90
10042;DHT22;5061;49.068;12.058;2023-04-24T12:42:56;13.30;99.90
10042;DHT22;5061;49.068;12.058;2023-04-24T12:46:17;13.50;99.90
10042;DHT22;5061;49.068;12.058;2023-04-24T12:49:37;13.60;99.90
10042;DHT22;5061;49.068;12.058;2023-04-24T12:52:58;13.70;99.90
10042;DHT22;5061;49.068;12.058;2023-04-24T12:56:19;13.80;99.90
10042;DHT22;5061;49.068;12.058;2023-04-24T12:59:39;13.80;99.90
10042;DHT22;5061;49.068;12.058;2023-04-24T13:03:00;13.60;99.70
10042;DHT22;5061;49.068;12.058;2023-04-24T13:06:21;13.40;99.50
10042;DHT22;5061;49.068;12.058;2023-04-24T13:09:43;13.10;99.60
10042;DHT22;5061;49.068;12.058;2023-04-24T13:13:04;13.00;99.90
10042;DHT22;5061;49.068;12.058;2023-04-24T13:16:24;12.80;99.90
10042;DHT22;5061;49.068;12.058;2023-04-24T13:19:45;12.70;99.90
10042;DHT22;5061;49.068;12.058;2023-04-24T13:23:06;12.60;99.50
10042;DHT22;5061;49.068;12.058;2023-04-24T13:26:26;12.50;99.00
10042;DHT22;5061;49.068;12.058;2023-04-24T13:29:47;12.50;99.40
10042;DHT22;5061;49.068;12.058;2023-04-24T13:33:08;12.70;99.30
10042;DHT22;5061;49.068;12.058;2023-04-24T13:36:29;12.90;99.20
10042;DHT22;5061;49.068;12.058;2023-04-24T13:39:50;13.10;99.40
10042;DHT22;5061;49.068;12.058;2023-04-24T13:43:11;13.10;98.40
10042;DHT22;5061;49.068;12.058;2023-04-24T13:46:32;13.00;98.90
10042;DHT22;5061;49.068;12.058;2023-04-24T13:49:52;13.00;98.90
10042;DHT22;5061;49.068;12.058;2023-04-24T13:53:14;13.10;98.70
10042;DHT22;5061;49.068;12.058;2023-04-24T13:56:35;13.00;97.90
10042;DHT22;5061;49.068;12.058;2023-04-24T13:59:56;12.90;98.00
10042;DHT22;5061;49.068;12.058;2023-04-24T14:03:21;12.80;97.50
10042;DHT22;5061;49.068;12.058;2023-04-24T14:06:43;12.60;97.90
10042;DHT22;5061;49.068;12.058;2023-04-24T14:10:04;12.50;98.60
10042;DHT22;5061;49.068;12.058;2023-04-24T14:13:25;12.40;99.70
10042;DHT22;5061;49.068;12.058;2023-04-24T14:16:46;12.30;98.80
10042;DHT22;5061;49.068;12.058;2023-04-24T14:20:07;12.10;99.20
10042;DHT22;5061;49.068;12.058;2023-04-24T14:23:27;11.80;99.00
10042;DHT22;5061;49.068;12.058;2023-04-24T14:26:48;11.60;99.90
10042;DHT22;5061;49.068;12.058;2023-04-24T14:30:10;11.40;99.90
10042;DHT22;5061;49.068;12.058;2023-04-24T14:33:30;11.30;99.90
10042;DHT22;5061;49.068;12.058;2023-04-24T14:36:52;11.20;99.90
10042;DHT22;5061;49.068;12.058;2023-04-24T14:40:13;11.20;99.90
10042;DHT22;5061;49.068;12.058;2023-04-24T14:43:34;11.20;99.90
10042;DHT22;5061;49.068;12.058;2023-04-24T14:46:55;11.10;99.90
10042;DHT22;5061;49.068;12.058;2023-04-24T14:50:16;11.10;99.90
10042;DHT22;5061;49.068;12.058;2023-04-24T14:53:37;11.10;99.90
10042;DHT22;5061;49.068;12.058;2023-04-24T14:56:57;11.10;99.90
10042;DHT22;5061;49.068;12.058;2023-04-24T15:00:19;11.10;99.90
10042;DHT22;5061;49.068;12.058;2023-04-24T15:03:40;11.10;99.90
10042;DHT22;5061;49.068;12.058;2023-04-24T15:07:01;11.20;99.90
10042;DHT22;5061;49.068;12.058;2023-04-24T15:10:22;11.30;99.80
10042;DHT22;5061;49.068;12.058;2023-04-24T15:13:44;11.40;99.90
10042;DHT22;5061;49.068;12.058;2023-04-24T15:17:07;11.40;99.90
10042;DHT22;5061;49.068;12.058;2023-04-24T15:20:28;11.40;99.90
10042;DHT22;5061;49.068;12.058;2023-04-24T15:23:49;11.40;99.90
10042;DHT22;5061;49.068;12.058;2023-04-24T15:27:10;11.30;99.90
10042;DHT22;5061;49.068;12.058;2023-04-24T15:30:31;11.30;99.90
10042;DHT22;5061;49.068;12.058;2023-04-24T15:33:52;11.40;99.90
10042;DHT22;5061;49.068;12.058;2023-04-24T15:37:13;11.40;99.70
10042;DHT22;5061;49.068;12.058;2023-04-24T15:40:34;11.40;99.40
10042;DHT22;5061;49.068;12.058;2023-04-24T15:43:54;11.50;99.80
10042;DHT22;5061;49.068;12.058;2023-04-24T15:47:16;11.70;99.90
10042;DHT22;5061;49.068;12.058;2023-04-24T15:50:44;11.90;99.70
10042;DHT22;5061;49.068;12.058;2023-04-24T15:54:08;12.00;99.50
10042;DHT22;5061;49.068;12.058;2023-04-24T15:57:30;12.10;99.90
10042;DHT22;5061;49.068;12.058;2023-04-24T16:00:54;12.10;99.40
10042;DHT22;5061;49.068;12.058;2023-04-24T16:04:23;12.10;99.90
10042;DHT22;5061;49.068;12.058;2023-04-24T16:07:48;12.00;99.00
10042;DHT22;5061;49.068;12.058;2023-04-24T16:11:10;12.00;98.60
10042;DHT22;5061;49.068;12.058;2023-04-24T16:14:32;11.90;99.30
10042;DHT22;5061;49.068;12.058;2023-04-24T16:17:52;11.90;98.90
10042;DHT22;5061;49.068;12.058;2023-04-24T16:21:13;11.90;99.20
10042;DHT22;5061;49.068;12.058;2023-04-24T16:24:34;11.80;98.20
10042;DHT22;5061;49.068;12.058;2023-04-24T16:27:54;11.70;97.80
10042;DHT22;5061;49.068;12.058;2023-04-24T16:31:16;11.70;98.20
10042;DHT22;5061;49.068;12.058;2023-04-24T16:34:37;11.50;98.60
10042;DHT22;5061;49.068;12.058;2023-04-24T16:38:00;11.40;98.50
10042;DHT22;5061;49.068;12.058;2023-04-24T16:41:22;11.30;99.60
10042;DHT22;5061;49.068;12.058;2023-04-24T16:44:43;11.20;98.30
10042;DHT22;5061;49.068;12.058;2023-04-24T16:48:04;11.20;98.90
10042;DHT22;5061;49.068;12.058;2023-04-24T16:51:24;11.20;98.60
10042;DHT22;5061;49.068;12.058;2023-04-24T16:54:47;11.30;98.50
10042;DHT22;5061;49.068;12.058;2023-04-24T16:58:07;11.30;98.50
10042;DHT22;5061;49.068;12.058;2023-04-24T17:01:28;11.30;98.30
10042;DHT22;5061;49.068;12.058;2023-04-24T17:04:48;11.20;98.40
10042;DHT22;5061;49.068;12.058;2023-04-24T17:08:09;11.10;98.50
10042;DHT22;5061;49.068;12.058;2023-04-24T17:11:30;11.10;99.00
10042;DHT22;5061;49.068;12.058;2023-04-24T17:14:50;10.90;98.80
10042;DHT22;5061;49.068;12.058;2023-04-24T17:18:11;10.80;98.60
10042;DHT22;5061;49.068;12.058;2023-04-24T17:21:32;10.70;98.90
10042;DHT22;5061;49.068;12.058;2023-04-24T17:24:53;10.60;99.10
10042;DHT22;5061;49.068;12.058;2023-04-24T17:28:26;10.50;98.80
10042;DHT22;5061;49.068;12.058;2023-04-24T17:31:47;10.50;99.20
10042;DHT22;5061;49.068;12.058;2023-04-24T17:35:08;10.40;99.00
10042;DHT22;5061;49.068;12.058;2023-04-24T17:38:29;10.30;99.00
10042;DHT22;5061;49.068;12.058;2023-04-24T17:41:50;10.30;99.10
10042;DHT22;5061;49.068;12.058;2023-04-24T17:45:11;10.20;99.10
10042;DHT22;5061;49.068;12.058;2023-04-24T17:48:31;10.20;99.10
10042;DHT22;5061;49.068;12.058;2023-04-24T17:51:52;10.20;99.30
10042;DHT22;5061;49.068;12.058;2023-04-24T17:55:13;10.20;99.40
10042;DHT22;5061;49.068;12.058;2023-04-24T17:58:38;10.10;99.40
10042;DHT22;5061;49.068;12.058;2023-04-24T18:02:00;10.10;99.60
10042;DHT22;5061;49.068;12.058;2023-04-24T18:05:20;10.00;99.70
10042;DHT22;5061;49.068;12.058;2023-04-24T18:08:41;9.90;99.90
10042;DHT22;5061;49.068;12.058;2023-04-24T18:12:02;9.80;99.90
10042;DHT22;5061;49.068;12.058;2023-04-24T18:15:23;9.80;99.90
10042;DHT22;5061;49.068;12.058;2023-04-24T18:18:44;9.70;99.90
10042;DHT22;5061;49.068;12.058;2023-04-24T18:22:05;9.60;99.90
10042;DHT22;5061;49.068;12.058;2023-04-24T18:25:25;9.50;99.90
10042;DHT22;5061;49.068;12.058;2023-04-24T18:28:46;9.40;99.90
10042;DHT22;5061;49.068;12.058;2023-04-24T18:32:07;9.30;99.90
10042;DHT22;5061;49.068;12.058;2023-04-24T18:35:27;9.30;99.90
10042;DHT22;5061;49.068;12.058;2023-04-24T18:38:48;9.20;99.90
10042;DHT22;5061;49.068;12.058;2023-04-24T18:42:09;9.10;99.90
10042;DHT22;5061;49.068;12.058;2023-04-24T18:45:29;9.00;99.90
10042;DHT22;5061;49.068;12.058;2023-04-24T18:48:50;8.90;99.90
10042;DHT22;5061;49.068;12.058;2023-04-24T18:52:11;8.80;99.90
10042;DHT22;5061;49.068;12.058;2023-04-24T18:55:31;8.70;99.90
10042;DHT22;5061;49.068;12.058;2023-04-24T18:58:54;8.70;99.90
10042;DHT22;5061;49.068;12.058;2023-04-24T19:02:15;8.70;99.90
10042;DHT22;5061;49.068;12.058;2023-04-24T19:05:35;8.70;99.90
10042;DHT22;5061;49.068;12.058;2023-04-24T19:08:56;8.70;99.90
10042;DHT22;5061;49.068;12.058;2023-04-24T19:12:17;8.80;99.90
10042;DHT22;5061;49.068;12.058;2023-04-24T19:15:37;8.70;99.90
10042;DHT22;5061;49.068;12.058;2023-04-24T19:18:59;8.70;99.90
10042;DHT22;5061;49.068;12.058;2023-04-24T19:22:20;8.70;99.90
10042;DHT22;5061;49.068;12.058;2023-04-24T19:25:40;8.70;99.90
10042;DHT22;5061;49.068;12.058;2023-04-24T19:29:01;8.60;99.90
10042;DHT22;5061;49.068;12.058;2023-04-24T19:32:22;8.60;99.90
10042;DHT22;5061;49.068;12.058;2023-04-24T19:35:42;8.50;99.90
10042;DHT22;5061;49.068;12.058;2023-04-24T19:39:03;8.50;99.90
10042;DHT22;5061;49.068;12.058;2023-04-24T19:42:24;8.50;99.90
10042;DHT22;5061;49.068;12.058;2023-04-24T19:45:45;8.50;99.90
10042;DHT22;5061;49.068;12.058;2023-04-24T19:49:05;8.50;99.90
10042;DHT22;5061;49.068;12.058;2023-04-24T19:52:26;8.50;99.90
10042;DHT22;5061;49.068;12.058;2023-04-24T19:55:47;8.50;99.90
10042;DHT22;5061;49.068;12.058;2023-04-24T19:59:07;8.50;99.90
10042;DHT22;5061;49.068;12.058;2023-04-24T20:02:28;8.50;99.90
10042;DHT22;5061;49.068;12.058;2023-04-24T20:05:50;8.40;99.90
10042;DHT22;5061;49.068;12.058;2023-04-24T20:09:10;8.40;99.90
10042;DHT22;5061;49.068;12.058;2023-04-24T20:12:31;8.40;99.90
10042;DHT22;5061;49.068;12.058;2023-04-24T20:15:52;8.40;99.90
10042;DHT22;5061;49.068;12.058;2023-04-24T20:19:13;8.40;99.90
10042;DHT22;5061;49.068;12.058;2023-04-24T20:22:35;8.40;99.90
10042;DHT22;5061;49.068;12.058;2023-04-24T20:25:58;8.40;99.90
10042;DHT22;5061;49.068;12.058;2023-04-24T20:29:19;8.40;99.90
10042;DHT22;5061;49.068;12.058;2023-04-24T20:32:48;8.30;99.90
10042;DHT22;5061;49.068;12.058;2023-04-24T20:36:08;8.30;99.90
10042;DHT22;5061;49.068;12.058;2023-04-24T20:39:29;8.20;99.90
10042;DHT22;5061;49.068;12.058;2023-04-24T20:42:51;8.10;99.90
10042;DHT22;5061;49.068;12.058;2023-04-24T20:46:12;8.10;99.90
10042;DHT22;5061;49.068;12.058;2023-04-24T20:49:33;8.00;99.90
10042;DHT22;5061;49.068;12.058;2023-04-24T20:52:54;7.90;99.90
10042;DHT22;5061;49.068;12.058;2023-04-24T20:56:15;7.90;99.90
10042;DHT22;5061;49.068;12.058;2023-04-24T20:59:40;7.90;99.90
10042;DHT22;5061;49.068;12.058;2023-04-24T21:03:03;7.80;99.90
10042;DHT22;5061;49.068;12.058;2023-04-24T21:06:24;7.80;99.90
10042;DHT22;5061;49.068;12.058;2023-04-24T21:09:45;7.80;99.90
10042;DHT22;5061;49.068;12.058;2023-04-24T21:13:06;7.70;99.90
10042;DHT22;5061;49.068;12.058;2023-04-24T21:16:33;7.70;99.90
10042;DHT22;5061;49.068;12.058;2023-04-24T21:20:01;7.70;99.90
10042;DHT22;5061;49.068;12.058;2023-04-24T21:23:23;7.60;99.90
10042;DHT22;5061;49.068;12.058;2023-04-24T21:26:47;7.50;99.90
10042;DHT22;5061;49.068;12.058;2023-04-24T21:30:10;7.50;99.90
10042;DHT22;5061;49.068;12.058;2023-04-24T21:33:34;7.50;99.90
10042;DHT22;5061;49.068;12.058;2023-04-24T21:36:55;7.40;99.90